sensor_id;sensor_type;location;lat;lon;timestamp;pressure;altitude;pressure_sealevel;temperature;humidity
11077;BME280;5591;42.626;23.380;2023-10-13T00:02:02;94704.22;;;13.55;100.00
11077;BME280;5591;42.626;23.380;2023-10-13T00:04:31;94692.41;;;13.44;100.00
11077;BME280;5591;42.626;23.380;2023-10-13T00:06:59;94693.03;;;13.46;100.00
11077;BME280;5591;42.626;23.380;2023-10-13T00:09:28;94641.16;;;13.19;100.00
11077;BME280;5591;42.626;23.380;2023-10-13T00:11:58;94691.69;;;13.29;100.00
11077;BME280;5591;42.626;23.380;2023-10-13T00:14:25;94691.94;;;13.34;100.00
11077;BME280;5591;42.626;23.380;2023-10-13T00:17:01;94685.19;;;13.25;100.00
11077;BME280;5591;42.626;23.380;2023-10-13T00:19:31;94690.06;;;13.28;100.00
11077;BME280;5591;42.626;23.380;2023-10-13T00:22:05;94679.16;;;13.31;100.00
11077;BME280;5591;42.626;23.380;2023-10-13T00:24:39;94666.06;;;13.10;100.00
11077;BME280;5591;42.626;23.380;2023-10-13T00:27:13;94680.25;;;13.09;100.00
11077;BME280;5591;42.626;23.380;2023-10-13T00:29:56;94644.59;;;12.92;100.00
11077;BME280;5591;42.626;23.380;2023-10-13T00:32:42;94673.53;;;13.07;100.00
11077;BME280;5591;42.626;23.380;2023-10-13T00:35:12;94669.22;;;12.99;100.00
11077;BME280;5591;42.626;23.380;2023-10-13T00:37:50;94677.00;;;12.93;100.00
11077;BME280;5591;42.626;23.380;2023-10-13T00:40:19;94604.31;;;12.43;100.00
11077;BME280;5591;42.626;23.380;2023-10-13T00:43:06;94681.63;;;12.84;100.00
11077;BME280;5591;42.626;23.380;2023-10-13T00:45:48;94683.84;;;12.87;100.00
11077;BME280;5591;42.626;23.380;2023-10-13T00:48:22;94675.50;;;12.77;100.00
11077;BME280;5591;42.626;23.380;2023-10-13T00:50:56;94679.19;;;12.83;100.00
11077;BME280;5591;42.626;23.380;2023-10-13T00:53:25;94685.59;;;12.74;100.00
11077;BME280;5591;42.626;23.380;2023-10-13T00:55:51;94687.78;;;12.70;100.00
11077;BME280;5591;42.626;23.380;2023-10-13T00:58:21;94679.22;;;12.62;100.00
11077;BME280;5591;42.626;23.380;2023-10-13T01:00:48;94691.88;;;12.73;100.00
11077;BME280;5591;42.626;23.380;2023-10-13T01:03:23;94693.78;;;12.64;100.00
11077;BME280;5591;42.626;23.380;2023-10-13T01:05:53;94680.69;;;12.71;100.00
11077;BME280;5591;42.626;23.380;2023-10-13T01:08:31;94681.13;;;12.53;100.00
11077;BME280;5591;42.626;23.380;2023-10-13T01:11:00;94688.69;;;12.56;100.00
11077;BME280;5591;42.626;23.380;2023-10-13T01:13:27;94676.25;;;12.50;100.00
11077;BME280;5591;42.626;23.380;2023-10-13T01:15:53;94677.72;;;12.53;100.00
11077;BME280;5591;42.626;23.380;2023-10-13T01:18:19;94690.25;;;12.51;100.00
11077;BME280;5591;42.626;23.380;2023-10-13T01:20:47;94687.63;;;12.51;100.00
11077;BME280;5591;42.626;23.380;2023-10-13T01:23:19;94692.56;;;12.60;100.00
11077;BME280;5591;42.626;23.380;2023-10-13T01:25:45;94694.19;;;12.61;100.00
11077;BME280;5591;42.626;23.380;2023-10-13T01:28:13;94688.41;;;12.72;100.00
11077;BME280;5591;42.626;23.380;2023-10-13T01:30:41;94692.50;;;12.75;100.00
11077;BME280;5591;42.626;23.380;2023-10-13T01:33:09;94694.91;;;12.76;100.00
11077;BME280;5591;42.626;23.380;2023-10-13T01:35:36;94690.03;;;12.73;100.00
11077;BME280;5591;42.626;23.380;2023-10-13T01:38:08;94682.56;;;12.77;100.00
11077;BME280;5591;42.626;23.380;2023-10-13T01:40:35;94683.88;;;12.66;100.00
11077;BME280;5591;42.626;23.380;2023-10-13T01:43:02;94686.28;;;12.61;100.00
11077;BME280;5591;42.626;23.380;2023-10-13T01:45:32;94686.41;;;12.74;100.00
11077;BME280;5591;42.626;23.380;2023-10-13T01:47:58;94692.72;;;12.80;100.00
11077;BME280;5591;42.626;23.380;2023-10-13T01:50:24;94703.13;;;12.88;100.00
11077;BME280;5591;42.626;23.380;2023-10-13T01:52:54;94701.41;;;12.74;100.00
11077;BME280;5591;42.626;23.380;2023-10-13T01:55:38;94697.41;;;12.84;100.00
11077;BME280;5591;42.626;23.380;2023-10-13T01:58:09;94691.66;;;12.74;100.00
11077;BME280;5591;42.626;23.380;2023-10-13T02:00:40;94686.66;;;12.79;100.00
11077;BME280;5591;42.626;23.380;2023-10-13T02:03:08;94702.75;;;12.70;100.00
11077;BME280;5591;42.626;23.380;2023-10-13T02:05:41;94695.75;;;12.77;100.00
11077;BME280;5591;42.626;23.380;2023-10-13T02:08:12;94688.22;;;12.74;100.00
11077;BME280;5591;42.626;23.380;2023-10-13T02:10:45;94683.88;;;12.66;100.00
11077;BME280;5591;42.626;23.380;2023-10-13T02:13:13;94647.31;;;12.50;100.00
11077;BME280;5591;42.626;23.380;2023-10-13T02:15:44;94670.66;;;12.60;100.00
11077;BME280;5591;42.626;23.380;2023-10-13T02:18:12;94678.94;;;12.57;100.00
11077;BME280;5591;42.626;23.380;2023-10-13T02:20:41;94676.09;;;12.52;100.00
11077;BME280;5591;42.626;23.380;2023-10-13T02:23:11;94678.50;;;12.53;100.00
11077;BME280;5591;42.626;23.380;2023-10-13T02:25:38;94665.16;;;12.34;100.00
11077;BME280;5591;42.626;23.380;2023-10-13T02:28:12;94687.53;;;12.44;100.00
11077;BME280;5591;42.626;23.380;2023-10-13T02:30:47;94631.50;;;11.88;100.00
11077;BME280;5591;42.626;23.380;2023-10-13T02:33:15;94660.84;;;12.27;100.00
11077;BME280;5591;42.626;23.380;2023-10-13T02:35:46;94671.31;;;12.20;100.00
11077;BME280;5591;42.626;23.380;2023-10-13T02:38:19;94676.63;;;12.27;100.00
11077;BME280;5591;42.626;23.380;2023-10-13T02:40:53;94673.78;;;12.07;100.00
11077;BME280;5591;42.626;23.380;2023-10-13T02:43:21;94676.50;;;12.14;100.00
11077;BME280;5591;42.626;23.380;2023-10-13T02:45:54;94680.44;;;12.24;100.00
11077;BME280;5591;42.626;23.380;2023-10-13T02:48:24;94671.50;;;12.19;100.00
11077;BME280;5591;42.626;23.380;2023-10-13T02:50:57;94663.78;;;12.17;100.00
11077;BME280;5591;42.626;23.380;2023-10-13T02:53:23;94678.66;;;12.25;100.00
11077;BME280;5591;42.626;23.380;2023-10-13T02:55:54;94686.53;;;12.25;100.00
11077;BME280;5591;42.626;23.380;2023-10-13T02:58:23;94677.59;;;12.19;100.00
11077;BME280;5591;42.626;23.380;2023-10-13T03:01:06;94687.66;;;12.16;100.00
11077;BME280;5591;42.626;23.380;2023-10-13T03:03:43;94692.72;;;12.17;100.00
11077;BME280;5591;42.626;23.380;2023-10-13T03:06:13;94702.69;;;12.22;100.00
11077;BME280;5591;42.626;23.380;2023-10-13T03:08:41;94693.00;;;12.22;100.00
11077;BME280;5591;42.626;23.380;2023-10-13T03:11:09;94694.41;;;12.04;100.00
11077;BME280;5591;42.626;23.380;2023-10-13T03:13:38;94689.56;;;12.07;100.00
11077;BME280;5591;42.626;23.380;2023-10-13T03:16:13;94703.84;;;11.98;100.00
11077;BME280;5591;42.626;23.380;2023-10-13T03:18:42;94692.81;;;11.88;100.00
11077;BME280;5591;42.626;23.380;2023-10-13T03:21:16;94709.00;;;12.06;100.00
11077;BME280;5591;42.626;23.380;2023-10-13T03:23:54;94704.84;;;11.97;100.00
11077;BME280;5591;42.626;23.380;2023-10-13T03:26:20;94693.75;;;12.02;100.00
11077;BME280;5591;42.626;23.380;2023-10-13T03:28:48;94695.00;;;11.85;100.00
11077;BME280;5591;42.626;23.380;2023-10-13T03:31:19;94690.59;;;11.92;100.00
11077;BME280;5591;42.626;23.380;2023-10-13T03:33:51;94701.47;;;12.03;100.00
11077;BME280;5591;42.626;23.380;2023-10-13T03:36:22;94709.13;;;11.84;100.00
11077;BME280;5591;42.626;23.380;2023-10-13T03:39:21;94702.53;;;12.09;100.00
11077;BME280;5591;42.626;23.380;2023-10-13T03:41:53;94691.50;;;11.99;100.00
11077;BME280;5591;42.626;23.380;2023-10-13T03:44:21;94704.41;;;11.94;100.00
11077;BME280;5591;42.626;23.380;2023-10-13T03:46:48;94693.75;;;12.02;100.00
11077;BME280;5591;42.626;23.380;2023-10-13T03:49:15;94673.25;;;11.97;100.00
11077;BME280;5591;42.626;23.380;2023-10-13T03:51:47;94668.72;;;12.06;100.00
11077;BME280;5591;42.626;23.380;2023-10-13T03:54:14;94669.06;;;12.03;100.00
11077;BME280;5591;42.626;23.380;2023-10-13T03:56:43;94666.88;;;11.85;100.00
11077;BME280;5591;42.626;23.380;2023-10-13T03:59:12;94661.31;;;11.95;100.00
11077;BME280;5591;42.626;23.380;2023-10-13T04:01:47;94658.31;;;11.98;100.00
11077;BME280;5591;42.626;23.380;2023-10-13T04:04:24;94652.28;;;11.83;100.00
11077;BME280;5591;42.626;23.380;2023-10-13T04:07:00;94650.53;;;11.90;100.00
11077;BME280;5591;42.626;23.380;2023-10-13T04:09:46;94650.94;;;11.72;100.00
11077;BME280;5591;42.626;23.380;2023-10-13T04:12:32;94633.91;;;11.68;100.00
11077;BME280;5591;42.626;23.380;2023-10-13T04:15:16;94648.59;;;11.77;100.00
11077;BME280;5591;42.626;23.380;2023-10-13T04:17:50;94647.78;;;11.98;100.00
11077;BME280;5591;42.626;23.380;2023-10-13T04:20:17;94648.78;;;11.97;100.00
11077;BME280;5591;42.626;23.380;2023-10-13T04:22:58;94649.97;;;11.94;100.00
11077;BME280;5591;42.626;23.380;2023-10-13T04:25:43;94656.06;;;11.95;100.00
11077;BME280;5591;42.626;23.380;2023-10-13T04:28:28;94661.28;;;12.09;100.00
11077;BME280;5591;42.626;23.380;2023-10-13T04:31:17;94666.09;;;12.06;100.00
11077;BME280;5591;42.626;23.380;2023-10-13T04:34:08;94675.13;;;12.18;100.00
11077;BME280;5591;42.626;23.380;2023-10-13T04:36:44;94675.06;;;12.32;100.00
11077;BME280;5591;42.626;23.380;2023-10-13T04:39:11;94674.28;;;12.17;100.00
11077;BME280;5591;42.626;23.380;2023-10-13T04:41:42;94710.41;;;12.23;100.00
11077;BME280;5591;42.626;23.380;2023-10-13T04:44:09;94688.84;;;12.34;100.00
11077;BME280;5591;42.626;23.380;2023-10-13T04:46:49;94688.28;;;12.18;100.00
11077;BME280;5591;42.626;23.380;2023-10-13T04:49:38;94702.06;;;12.20;100.00
11077;BME280;5591;42.626;23.380;2023-10-13T04:52:18;94700.38;;;12.12;100.00
11077;BME280;5591;42.626;23.380;2023-10-13T04:55:03;94700.59;;;12.17;100.00
11077;BME280;5591;42.626;23.380;2023-10-13T04:57:44;94707.09;;;12.15;100.00
11077;BME280;5591;42.626;23.380;2023-10-13T05:00:19;94716.31;;;12.46;100.00
11077;BME280;5591;42.626;23.380;2023-10-13T05:03:04;94705.97;;;12.65;100.00
11077;BME280;5591;42.626;23.380;2023-10-13T05:05:49;94722.75;;;12.64;100.00
11077;BME280;5591;42.626;23.380;2023-10-13T05:08:33;94732.22;;;12.59;100.00
11077;BME280;5591;42.626;23.380;2023-10-13T05:11:17;94739.69;;;12.76;100.00
11077;BME280;5591;42.626;23.380;2023-10-13T05:14:02;94718.53;;;12.91;100.00
11077;BME280;5591;42.626;23.380;2023-10-13T05:16:47;94735.56;;;12.88;100.00
11077;BME280;5591;42.626;23.380;2023-10-13T05:19:31;94705.66;;;12.75;100.00
11077;BME280;5591;42.626;23.380;2023-10-13T05:22:17;94730.44;;;13.01;100.00
11077;BME280;5591;42.626;23.380;2023-10-13T05:25:02;94744.47;;;13.08;100.00
11077;BME280;5591;42.626;23.380;2023-10-13T05:27:57;94741.94;;;13.21;100.00
11077;BME280;5591;42.626;23.380;2023-10-13T05:30:47;94750.25;;;13.25;100.00
11077;BME280;5591;42.626;23.380;2023-10-13T05:33:31;94741.25;;;13.40;100.00
11077;BME280;5591;42.626;23.380;2023-10-13T05:36:15;94761.63;;;13.53;100.00
11077;BME280;5591;42.626;23.380;2023-10-13T05:39:01;94752.03;;;13.73;100.00
11077;BME280;5591;42.626;23.380;2023-10-13T05:41:44;94753.91;;;13.79;100.00
11077;BME280;5591;42.626;23.380;2023-10-13T05:44:28;94796.63;;;13.95;100.00
11077;BME280;5591;42.626;23.380;2023-10-13T05:47:18;94763.38;;;14.07;100.00
11077;BME280;5591;42.626;23.380;2023-10-13T05:50:03;94773.66;;;14.30;100.00
11077;BME280;5591;42.626;23.380;2023-10-13T05:52:38;94762.75;;;14.52;100.00
11077;BME280;5591;42.626;23.380;2023-10-13T05:55:25;94759.69;;;14.49;100.00
11077;BME280;5591;42.626;23.380;2023-10-13T05:58:09;94761.00;;;14.79;100.00
11077;BME280;5591;42.626;23.380;2023-10-13T06:00:53;94761.44;;;14.95;100.00
11077;BME280;5591;42.626;23.380;2023-10-13T06:03:38;94767.56;;;15.15;100.00
11077;BME280;5591;42.626;23.380;2023-10-13T06:06:22;94763.09;;;15.54;100.00
11077;BME280;5591;42.626;23.380;2023-10-13T06:09:07;94765.31;;;15.83;100.00
11077;BME280;5591;42.626;23.380;2023-10-13T06:11:52;94766.88;;;16.04;100.00
11077;BME280;5591;42.626;23.380;2023-10-13T06:14:37;94778.84;;;16.19;100.00
11077;BME280;5591;42.626;23.380;2023-10-13T06:17:21;94782.09;;;16.21;100.00
11077;BME280;5591;42.626;23.380;2023-10-13T06:20:06;94795.91;;;16.49;100.00
11077;BME280;5591;42.626;23.380;2023-10-13T06:22:51;94780.75;;;16.63;100.00
11077;BME280;5591;42.626;23.380;2023-10-13T06:25:35;94787.78;;;16.82;100.00
11077;BME280;5591;42.626;23.380;2023-10-13T06:28:21;94783.84;;;16.91;100.00
11077;BME280;5591;42.626;23.380;2023-10-13T06:31:05;94784.50;;;16.86;100.00
11077;BME280;5591;42.626;23.380;2023-10-13T06:33:32;94794.59;;;16.71;100.00
11077;BME280;5591;42.626;23.380;2023-10-13T06:36:01;94797.66;;;16.68;100.00
11077;BME280;5591;42.626;23.380;2023-10-13T06:38:29;94799.53;;;16.99;100.00
11077;BME280;5591;42.626;23.380;2023-10-13T06:41:01;94796.38;;;17.46;100.00
11077;BME280;5591;42.626;23.380;2023-10-13T06:43:32;94795.84;;;17.31;100.00
11077;BME280;5591;42.626;23.380;2023-10-13T06:46:05;94791.44;;;17.49;100.00
11077;BME280;5591;42.626;23.380;2023-10-13T06:48:32;94795.13;;;17.72;100.00
11077;BME280;5591;42.626;23.380;2023-10-13T06:51:00;94780.72;;;17.86;100.00
11077;BME280;5591;42.626;23.380;2023-10-13T06:53:39;94783.69;;;18.14;98.55
11077;BME280;5591;42.626;23.380;2023-10-13T06:56:11;94780.09;;;18.27;97.04
11077;BME280;5591;42.626;23.380;2023-10-13T06:58:44;94786.75;;;18.54;95.78
11077;BME280;5591;42.626;23.380;2023-10-13T07:01:12;94785.22;;;18.64;94.75
11077;BME280;5591;42.626;23.380;2023-10-13T07:03:47;94779.47;;;18.79;94.40
11077;BME280;5591;42.626;23.380;2023-10-13T07:06:18;94783.19;;;18.78;92.79
11077;BME280;5591;42.626;23.380;2023-10-13T07:08:45;94783.16;;;18.48;94.58
11077;BME280;5591;42.626;23.380;2023-10-13T07:11:17;94767.66;;;18.93;92.39
11077;BME280;5591;42.626;23.380;2023-10-13T07:14:00;94763.28;;;19.28;90.02
11077;BME280;5591;42.626;23.380;2023-10-13T07:16:36;94761.78;;;19.43;88.92
11077;BME280;5591;42.626;23.380;2023-10-13T07:19:03;94755.75;;;19.36;88.05
11077;BME280;5591;42.626;23.380;2023-10-13T07:21:33;94755.00;;;19.70;87.50
11077;BME280;5591;42.626;23.380;2023-10-13T07:24:00;94761.03;;;19.66;85.86
11077;BME280;5591;42.626;23.380;2023-10-13T07:26:37;94772.13;;;19.51;86.25
11077;BME280;5591;42.626;23.380;2023-10-13T07:29:09;94769.94;;;19.19;88.26
11077;BME280;5591;42.626;23.380;2023-10-13T07:31:36;94776.97;;;19.13;90.19
11077;BME280;5591;42.626;23.380;2023-10-13T07:34:06;94775.25;;;19.60;87.37
11077;BME280;5591;42.626;23.380;2023-10-13T07:36:39;94773.63;;;19.59;86.42
11077;BME280;5591;42.626;23.380;2023-10-13T07:39:09;94782.16;;;19.38;87.58
11077;BME280;5591;42.626;23.380;2023-10-13T07:41:50;94771.56;;;19.72;86.69
11077;BME280;5591;42.626;23.380;2023-10-13T07:44:21;94768.94;;;20.18;83.92
11077;BME280;5591;42.626;23.380;2023-10-13T07:46:52;94768.22;;;20.34;82.78
11077;BME280;5591;42.626;23.380;2023-10-13T07:49:28;94768.72;;;20.20;82.71
11077;BME280;5591;42.626;23.380;2023-10-13T07:52:00;94763.34;;;20.42;81.39
11077;BME280;5591;42.626;23.380;2023-10-13T07:54:44;94758.22;;;21.20;78.08
11077;BME280;5591;42.626;23.380;2023-10-13T07:57:13;94756.41;;;21.53;74.28
11077;BME280;5591;42.626;23.380;2023-10-13T07:59:43;94756.44;;;21.70;71.33
11077;BME280;5591;42.626;23.380;2023-10-13T08:02:17;94752.88;;;21.64;72.50
11077;BME280;5591;42.626;23.380;2023-10-13T08:04:58;94750.50;;;22.01;70.81
11077;BME280;5591;42.626;23.380;2023-10-13T08:07:24;94750.16;;;22.14;70.65
11077;BME280;5591;42.626;23.380;2023-10-13T08:09:53;94756.41;;;22.03;69.99
11077;BME280;5591;42.626;23.380;2023-10-13T08:12:23;94751.16;;;22.08;70.25
11077;BME280;5591;42.626;23.380;2023-10-13T08:14:51;94680.16;;;21.79;69.69
11077;BME280;5591;42.626;23.380;2023-10-13T08:17:36;94749.66;;;22.98;67.51
11077;BME280;5591;42.626;23.380;2023-10-13T08:20:10;94759.44;;;23.61;65.16
11077;BME280;5591;42.626;23.380;2023-10-13T08:22:38;94744.56;;;23.17;65.13
11077;BME280;5591;42.626;23.380;2023-10-13T08:25:12;94750.19;;;23.42;64.68
11077;BME280;5591;42.626;23.380;2023-10-13T08:27:46;94758.69;;;23.34;65.21
11077;BME280;5591;42.626;23.380;2023-10-13T08:30:17;94764.53;;;21.91;71.05
11077;BME280;5591;42.626;23.380;2023-10-13T08:33:04;94760.72;;;22.04;71.07
11077;BME280;5591;42.626;23.380;2023-10-13T08:35:42;94756.28;;;22.09;70.43
11077;BME280;5591;42.626;23.380;2023-10-13T08:38:20;94730.47;;;21.21;74.41
11077;BME280;5591;42.626;23.380;2023-10-13T08:40:58;94762.09;;;22.06;72.99
11077;BME280;5591;42.626;23.380;2023-10-13T08:43:43;94758.84;;;22.59;70.34
11077;BME280;5591;42.626;23.380;2023-10-13T08:46:17;94743.03;;;23.53;65.64
11077;BME280;5591;42.626;23.380;2023-10-13T08:48:58;94699.97;;;23.96;61.45
11077;BME280;5591;42.626;23.380;2023-10-13T08:51:34;94754.25;;;23.02;64.47
11077;BME280;5591;42.626;23.380;2023-10-13T08:54:13;94741.09;;;23.17;65.23
11077;BME280;5591;42.626;23.380;2023-10-13T08:56:47;94744.13;;;23.57;64.55
11077;BME280;5591;42.626;23.380;2023-10-13T08:59:21;94753.44;;;23.49;62.58
11077;BME280;5591;42.626;23.380;2023-10-13T09:01:49;94750.47;;;23.19;63.60
11077;BME280;5591;42.626;23.380;2023-10-13T09:04:25;94753.09;;;22.93;65.42
11077;BME280;5591;42.626;23.380;2023-10-13T09:06:59;94752.50;;;22.86;66.60
11077;BME280;5591;42.626;23.380;2023-10-13T09:09:44;94748.25;;;23.38;64.84
11077;BME280;5591;42.626;23.380;2023-10-13T09:12:26;94741.31;;;23.73;62.86
11077;BME280;5591;42.626;23.380;2023-10-13T09:15:05;94740.19;;;24.37;60.71
11077;BME280;5591;42.626;23.380;2023-10-13T09:17:40;94744.69;;;24.73;58.94
11077;BME280;5591;42.626;23.380;2023-10-13T09:20:14;94746.31;;;23.86;60.27
11077;BME280;5591;42.626;23.380;2023-10-13T09:22:51;94740.19;;;24.37;59.62
11077;BME280;5591;42.626;23.380;2023-10-13T09:25:34;94712.00;;;23.88;59.82
11077;BME280;5591;42.626;23.380;2023-10-13T09:28:00;94744.47;;;24.33;59.40
11077;BME280;5591;42.626;23.380;2023-10-13T09:30:28;94734.69;;;25.30;57.80
11077;BME280;5591;42.626;23.380;2023-10-13T09:33:02;94734.22;;;26.13;54.32
11077;BME280;5591;42.626;23.380;2023-10-13T09:35:30;94725.28;;;26.52;52.81
11077;BME280;5591;42.626;23.380;2023-10-13T09:37:59;94726.81;;;26.73;52.01
11077;BME280;5591;42.626;23.380;2023-10-13T09:40:28;94717.13;;;27.31;50.37
11077;BME280;5591;42.626;23.380;2023-10-13T09:43:00;94728.38;;;26.89;50.42
11077;BME280;5591;42.626;23.380;2023-10-13T09:45:31;94707.03;;;26.14;51.63
11077;BME280;5591;42.626;23.380;2023-10-13T09:48:04;94711.59;;;25.64;52.11
11077;BME280;5591;42.626;23.380;2023-10-13T09:50:43;94704.03;;;25.21;52.75
11077;BME280;5591;42.626;23.380;2023-10-13T09:53:10;94711.38;;;26.05;51.12
11077;BME280;5591;42.626;23.380;2023-10-13T09:55:42;94712.16;;;25.71;51.19
11077;BME280;5591;42.626;23.380;2023-10-13T09:58:12;94696.84;;;25.62;51.26
11077;BME280;5591;42.626;23.380;2023-10-13T10:00:43;94699.97;;;25.09;52.85
11077;BME280;5591;42.626;23.380;2023-10-13T10:03:17;94703.25;;;25.36;52.28
11077;BME280;5591;42.626;23.380;2023-10-13T10:06:02;94708.91;;;25.39;52.07
11077;BME280;5591;42.626;23.380;2023-10-13T10:08:32;94645.75;;;25.32;51.17
11077;BME280;5591;42.626;23.380;2023-10-13T10:11:23;94705.69;;;25.62;50.47
11077;BME280;5591;42.626;23.380;2023-10-13T10:14:02;94644.66;;;25.68;49.14
11077;BME280;5591;42.626;23.380;2023-10-13T10:16:43;94693.03;;;26.17;49.13
11077;BME280;5591;42.626;23.380;2023-10-13T10:19:15;94688.66;;;26.46;48.42
11077;BME280;5591;42.626;23.380;2023-10-13T10:21:43;94680.91;;;26.15;47.96
11077;BME280;5591;42.626;23.380;2023-10-13T10:24:14;94691.41;;;27.05;46.83
11077;BME280;5591;42.626;23.380;2023-10-13T10:26:53;94683.28;;;27.87;44.40
11077;BME280;5591;42.626;23.380;2023-10-13T10:29:20;94676.75;;;28.21;43.67
11077;BME280;5591;42.626;23.380;2023-10-13T10:31:47;94613.47;;;27.80;42.89
11077;BME280;5591;42.626;23.380;2023-10-13T10:34:14;94670.66;;;28.39;42.36
11077;BME280;5591;42.626;23.380;2023-10-13T10:36:47;94670.44;;;28.31;40.97
11077;BME280;5591;42.626;23.380;2023-10-13T10:39:16;94677.56;;;28.22;40.46
11077;BME280;5591;42.626;23.380;2023-10-13T10:41:43;94678.13;;;27.18;40.91
11077;BME280;5591;42.626;23.380;2023-10-13T10:44:17;94675.31;;;26.85;41.37
11077;BME280;5591;42.626;23.380;2023-10-13T10:46:45;94666.97;;;28.02;39.61
11077;BME280;5591;42.626;23.380;2023-10-13T10:49:23;94676.31;;;26.99;40.23
11077;BME280;5591;42.626;23.380;2023-10-13T10:51:58;94666.63;;;27.41;40.79
11077;BME280;5591;42.626;23.380;2023-10-13T10:54:30;94672.72;;;28.19;38.98
11077;BME280;5591;42.626;23.380;2023-10-13T10:56:58;94667.84;;;28.49;38.56
11077;BME280;5591;42.626;23.380;2023-10-13T10:59:37;94671.66;;;27.91;39.15
11077;BME280;5591;42.626;23.380;2023-10-13T11:02:04;94667.19;;;27.77;39.66
11077;BME280;5591;42.626;23.380;2023-10-13T11:04:33;94650.31;;;28.88;38.32
11077;BME280;5591;42.626;23.380;2023-10-13T11:07:02;94665.38;;;28.24;37.19
11077;BME280;5591;42.626;23.380;2023-10-13T11:09:30;94668.47;;;27.46;38.43
11077;BME280;5591;42.626;23.380;2023-10-13T11:12:10;94651.66;;;27.92;38.46
11077;BME280;5591;42.626;23.380;2023-10-13T11:14:41;94648.19;;;28.85;36.55
11077;BME280;5591;42.626;23.380;2023-10-13T11:17:18;94629.56;;;27.57;37.79
11077;BME280;5591;42.626;23.380;2023-10-13T11:19:50;94654.53;;;28.53;37.32
11077;BME280;5591;42.626;23.380;2023-10-13T11:22:19;94642.59;;;29.74;35.59
11077;BME280;5591;42.626;23.380;2023-10-13T11:25:02;94647.47;;;30.63;34.35
11077;BME280;5591;42.626;23.380;2023-10-13T11:27:35;94629.22;;;32.97;31.60
11077;BME280;5591;42.626;23.380;2023-10-13T11:30:21;94625.81;;;34.44;29.99
11077;BME280;5591;42.626;23.380;2023-10-13T11:32:59;94621.94;;;32.28;30.91
11077;BME280;5591;42.626;23.380;2023-10-13T11:35:26;94629.91;;;32.02;30.79
11077;BME280;5591;42.626;23.380;2023-10-13T11:38:15;94627.88;;;32.38;30.00
11077;BME280;5591;42.626;23.380;2023-10-13T11:40:51;94627.63;;;34.15;28.88
11077;BME280;5591;42.626;23.380;2023-10-13T11:43:38;94618.13;;;32.76;29.32
11077;BME280;5591;42.626;23.380;2023-10-13T11:46:28;94620.44;;;30.45;32.41
11077;BME280;5591;42.626;23.380;2023-10-13T11:49:12;94626.56;;;31.75;30.89
11077;BME280;5591;42.626;23.380;2023-10-13T11:51:56;94606.25;;;34.42;27.90
11077;BME280;5591;42.626;23.380;2023-10-13T11:54:35;94612.06;;;35.89;27.11
11077;BME280;5591;42.626;23.380;2023-10-13T11:57:07;94611.31;;;35.47;26.89
11077;BME280;5591;42.626;23.380;2023-10-13T11:59:34;94605.88;;;36.57;26.29
11077;BME280;5591;42.626;23.380;2023-10-13T12:02:10;94601.41;;;37.60;25.36
11077;BME280;5591;42.626;23.380;2023-10-13T12:04:54;94590.50;;;37.63;25.08
11077;BME280;5591;42.626;23.380;2023-10-13T12:07:23;94597.84;;;38.57;24.82
11077;BME280;5591;42.626;23.380;2023-10-13T12:09:54;94585.38;;;38.91;24.10
11077;BME280;5591;42.626;23.380;2023-10-13T12:12:32;94588.19;;;39.63;23.93
11077;BME280;5591;42.626;23.380;2023-10-13T12:15:06;94586.22;;;40.59;23.00
11077;BME280;5591;42.626;23.380;2023-10-13T12:17:40;94583.63;;;40.91;22.28
11077;BME280;5591;42.626;23.380;2023-10-13T12:20:10;94579.16;;;40.83;22.40
11077;BME280;5591;42.626;23.380;2023-10-13T12:22:44;94584.81;;;41.16;21.57
11077;BME280;5591;42.626;23.380;2023-10-13T12:25:21;94590.25;;;41.35;21.20
11077;BME280;5591;42.626;23.380;2023-10-13T12:28:09;94587.81;;;38.34;22.94
11077;BME280;5591;42.626;23.380;2023-10-13T12:30:44;94592.59;;;33.79;26.50
11077;BME280;5591;42.626;23.380;2023-10-13T12:33:17;94596.78;;;33.85;27.34
11077;BME280;5591;42.626;23.380;2023-10-13T12:35:50;94586.63;;;35.56;25.98
11077;BME280;5591;42.626;23.380;2023-10-13T12:38:29;94583.78;;;36.86;24.95
11077;BME280;5591;42.626;23.380;2023-10-13T12:41:18;94575.34;;;37.93;24.35
11077;BME280;5591;42.626;23.380;2023-10-13T12:44:04;94577.56;;;38.62;23.08
11077;BME280;5591;42.626;23.380;2023-10-13T12:46:49;94580.09;;;39.01;22.69
11077;BME280;5591;42.626;23.380;2023-10-13T12:49:33;94580.22;;;37.21;23.65
11077;BME280;5591;42.626;23.380;2023-10-13T12:52:17;94572.69;;;33.96;26.67
11077;BME280;5591;42.626;23.380;2023-10-13T12:54:45;94575.41;;;34.04;26.84
11077;BME280;5591;42.626;23.380;2023-10-13T12:57:21;94575.69;;;34.94;26.02
11077;BME280;5591;42.626;23.380;2023-10-13T12:59:49;94569.94;;;36.22;25.53
11077;BME280;5591;42.626;23.380;2023-10-13T13:02:19;94567.34;;;37.88;24.15
11077;BME280;5591;42.626;23.380;2023-10-13T13:04:46;94572.59;;;38.67;23.37
11077;BME280;5591;42.626;23.380;2023-10-13T13:07:19;94570.41;;;39.57;22.49
11077;BME280;5591;42.626;23.380;2023-10-13T13:09:46;94569.97;;;39.36;22.14
11077;BME280;5591;42.626;23.380;2023-10-13T13:12:14;94564.22;;;37.90;23.67
11077;BME280;5591;42.626;23.380;2023-10-13T13:14:42;94562.78;;;38.82;23.18
11077;BME280;5591;42.626;23.380;2023-10-13T13:17:12;94583.22;;;38.38;23.23
11077;BME280;5591;42.626;23.380;2023-10-13T13:19:39;94568.75;;;39.91;22.58
11077;BME280;5591;42.626;23.380;2023-10-13T13:22:06;94566.25;;;40.24;21.48
11077;BME280;5591;42.626;23.380;2023-10-13T13:24:37;94568.03;;;40.54;21.06
11077;BME280;5591;42.626;23.380;2023-10-13T13:27:09;94569.38;;;41.12;21.82
11077;BME280;5591;42.626;23.380;2023-10-13T13:29:39;94562.81;;;40.71;21.21
11077;BME280;5591;42.626;23.380;2023-10-13T13:32:08;94535.00;;;40.80;21.26
11077;BME280;5591;42.626;23.380;2023-10-13T13:34:43;94566.53;;;40.60;21.66